sensor_id;sensor_type;location;lat;lon;timestamp;pressure;altitude;pressure_sealevel;temperature
80246;BMP280;69558;39.208;-77.226;2023-06-26T00:00:54;99373.91;;;23.98
80246;BMP280;69558;39.208;-77.226;2023-06-26T00:03:20;99378.16;;;23.99
80246;BMP280;69558;39.208;-77.226;2023-06-26T00:05:46;99364.03;;;23.93
80246;BMP280;69558;39.208;-77.226;2023-06-26T00:08:12;99362.25;;;23.99
80246;BMP280;69558;39.208;-77.226;2023-06-26T00:10:38;99349.75;;;23.95
80246;BMP280;69558;39.208;-77.226;2023-06-26T00:13:04;99364.91;;;23.99
80246;BMP280;69558;39.208;-77.226;2023-06-26T00:15:30;99356.69;;;24.01
80246;BMP280;69558;39.208;-77.226;2023-06-26T00:17:58;99354.03;;;24.01
80246;BMP280;69558;39.208;-77.226;2023-06-26T00:20:24;99343.97;;;23.98
80246;BMP280;69558;39.208;-77.226;2023-06-26T00:22:50;99339.22;;;24.00
80246;BMP280;69558;39.208;-77.226;2023-06-26T00:25:16;99340.56;;;24.02
80246;BMP280;69558;39.208;-77.226;2023-06-26T00:27:42;99339.53;;;24.03
80246;BMP280;69558;39.208;-77.226;2023-06-26T00:30:08;99325.59;;;23.91
80246;BMP280;69558;39.208;-77.226;2023-06-26T00:32:34;99345.31;;;24.00
80246;BMP280;69558;39.208;-77.226;2023-06-26T00:35:00;99350.63;;;24.00
80246;BMP280;69558;39.208;-77.226;2023-06-26T00:37:26;99359.34;;;24.01
80246;BMP280;69558;39.208;-77.226;2023-06-26T00:39:52;99357.28;;;24.03
80246;BMP280;69558;39.208;-77.226;2023-06-26T00:42:18;99368.91;;;24.02
80246;BMP280;69558;39.208;-77.226;2023-06-26T00:44:44;99364.09;;;23.99
80246;BMP280;69558;39.208;-77.226;2023-06-26T00:47:14;99368.66;;;24.03
80246;BMP280;69558;39.208;-77.226;2023-06-26T00:49:41;99365.72;;;24.00
80246;BMP280;69558;39.208;-77.226;2023-06-26T00:52:14;99384.00;;;24.01
80246;BMP280;69558;39.208;-77.226;2023-06-26T00:54:53;99381.03;;;23.98
80246;BMP280;69558;39.208;-77.226;2023-06-26T00:57:19;99396.69;;;23.99
80246;BMP280;69558;39.208;-77.226;2023-06-26T00:59:45;99389.22;;;23.96
80246;BMP280;69558;39.208;-77.226;2023-06-26T01:02:12;99385.19;;;23.88
80246;BMP280;69558;39.208;-77.226;2023-06-26T01:04:48;99382.78;;;23.87
80246;BMP280;69558;39.208;-77.226;2023-06-26T01:07:15;99408.66;;;24.02
80246;BMP280;69558;39.208;-77.226;2023-06-26T01:09:48;99407.00;;;24.01
80246;BMP280;69558;39.208;-77.226;2023-06-26T01:12:15;99417.59;;;24.01
80246;BMP280;69558;39.208;-77.226;2023-06-26T01:14:41;99415.56;;;24.03
80246;BMP280;69558;39.208;-77.226;2023-06-26T01:17:08;99416.66;;;24.07
80246;BMP280;69558;39.208;-77.226;2023-06-26T01:19:37;99408.66;;;24.02
80246;BMP280;69558;39.208;-77.226;2023-06-26T01:22:18;99414.22;;;24.05
80246;BMP280;69558;39.208;-77.226;2023-06-26T01:25:35;99415.88;;;24.06
80246;BMP280;69558;39.208;-77.226;2023-06-26T01:27:45;99404.63;;;23.99
80246;BMP280;69558;39.208;-77.226;2023-06-26T01:30:12;99414.44;;;23.99
80246;BMP280;69558;39.208;-77.226;2023-06-26T01:32:40;99400.75;;;23.85
80246;BMP280;69558;39.208;-77.226;2023-06-26T01:35:07;99428.78;;;24.03
80246;BMP280;69558;39.208;-77.226;2023-06-26T01:37:33;99416.59;;;24.02
80246;BMP280;69558;39.208;-77.226;2023-06-26T01:39:59;99418.72;;;24.05
80246;BMP280;69558;39.208;-77.226;2023-06-26T01:42:26;99417.47;;;24.07
80246;BMP280;69558;39.208;-77.226;2023-06-26T01:44:55;99417.16;;;24.04
80246;BMP280;69558;39.208;-77.226;2023-06-26T01:47:25;99416.06;;;24.05
80246;BMP280;69558;39.208;-77.226;2023-06-26T01:50:05;99409.13;;;23.99
80246;BMP280;69558;39.208;-77.226;2023-06-26T01:52:35;99422.44;;;24.04
80246;BMP280;69558;39.208;-77.226;2023-06-26T01:57:52;99420.56;;;24.04
80246;BMP280;69558;39.208;-77.226;2023-06-26T02:00:20;99421.97;;;24.07
80246;BMP280;69558;39.208;-77.226;2023-06-26T02:02:47;99422.97;;;24.06
80246;BMP280;69558;39.208;-77.226;2023-06-26T02:05:13;99416.84;;;24.00
80246;BMP280;69558;39.208;-77.226;2023-06-26T02:07:40;99421.34;;;24.00
80246;BMP280;69558;39.208;-77.226;2023-06-26T02:10:06;99429.09;;;24.06
80246;BMP280;69558;39.208;-77.226;2023-06-26T02:12:33;99427.47;;;24.05
80246;BMP280;69558;39.208;-77.226;2023-06-26T02:15:00;99428.28;;;24.06
80246;BMP280;69558;39.208;-77.226;2023-06-26T02:17:25;99418.44;;;24.01
80246;BMP280;69558;39.208;-77.226;2023-06-26T02:19:52;99433.56;;;24.06
80246;BMP280;69558;39.208;-77.226;2023-06-26T02:22:17;99433.81;;;24.04
80246;BMP280;69558;39.208;-77.226;2023-06-26T02:24:44;99441.31;;;24.07
80246;BMP280;69558;39.208;-77.226;2023-06-26T02:27:10;99430.66;;;24.02
80246;BMP280;69558;39.208;-77.226;2023-06-26T02:29:36;99423.75;;;24.01
80246;BMP280;69558;39.208;-77.226;2023-06-26T02:32:02;99426.75;;;24.10
80246;BMP280;69558;39.208;-77.226;2023-06-26T02:34:28;99420.13;;;24.07
80246;BMP280;69558;39.208;-77.226;2023-06-26T02:36:56;99419.31;;;24.07
80246;BMP280;69558;39.208;-77.226;2023-06-26T02:39:24;99425.41;;;24.07
80246;BMP280;69558;39.208;-77.226;2023-06-26T02:41:50;99424.34;;;24.08
80246;BMP280;69558;39.208;-77.226;2023-06-26T02:44:16;99418.50;;;24.06
80246;BMP280;69558;39.208;-77.226;2023-06-26T02:46:42;99412.59;;;23.99
80246;BMP280;69558;39.208;-77.226;2023-06-26T02:49:08;99414.19;;;24.00
80246;BMP280;69558;39.208;-77.226;2023-06-26T02:51:34;99425.16;;;24.09
80246;BMP280;69558;39.208;-77.226;2023-06-26T02:54:01;99412.63;;;24.04
80246;BMP280;69558;39.208;-77.226;2023-06-26T02:56:33;99416.66;;;24.07
80246;BMP280;69558;39.208;-77.226;2023-06-26T02:59:05;99414.22;;;24.05
80246;BMP280;69558;39.208;-77.226;2023-06-26T03:01:32;99414.22;;;24.05
80246;BMP280;69558;39.208;-77.226;2023-06-26T03:03:58;99409.25;;;24.09
80246;BMP280;69558;39.208;-77.226;2023-06-26T03:06:26;99414.22;;;24.05
80246;BMP280;69558;39.208;-77.226;2023-06-26T03:08:52;99412.59;;;23.99
80246;BMP280;69558;39.208;-77.226;2023-06-26T03:11:18;99430.13;;;24.05
80246;BMP280;69558;39.208;-77.226;2023-06-26T03:13:45;99422.19;;;24.05
80246;BMP280;69558;39.208;-77.226;2023-06-26T03:16:11;99428.84;;;24.08
80246;BMP280;69558;39.208;-77.226;2023-06-26T03:18:37;99431.97;;;24.05
80246;BMP280;69558;39.208;-77.226;2023-06-26T03:21:03;99430.94;;;24.06
80246;BMP280;69558;39.208;-77.226;2023-06-26T03:23:29;99428.84;;;24.08
80246;BMP280;69558;39.208;-77.226;2023-06-26T03:25:55;99425.41;;;24.07
80246;BMP280;69558;39.208;-77.226;2023-06-26T03:28:21;99431.75;;;24.06
80246;BMP280;69558;39.208;-77.226;2023-06-26T03:30:48;99426.94;;;24.03
80246;BMP280;69558;39.208;-77.226;2023-06-26T03:33:14;99427.78;;;24.09
80246;BMP280;69558;39.208;-77.226;2023-06-26T03:35:40;99428.59;;;24.09
80246;BMP280;69558;39.208;-77.226;2023-06-26T03:38:06;99416.88;;;24.05
80246;BMP280;69558;39.208;-77.226;2023-06-26T03:40:32;99409.22;;;24.04
80246;BMP280;69558;39.208;-77.226;2023-06-26T03:42:58;99404.69;;;24.04
80246;BMP280;69558;39.208;-77.226;2023-06-26T03:45:24;99406.28;;;24.05
80246;BMP280;69558;39.208;-77.226;2023-06-26T03:47:50;99398.91;;;24.07
80246;BMP280;69558;39.208;-77.226;2023-06-26T03:50:16;99399.38;;;24.04
80246;BMP280;69558;39.208;-77.226;2023-06-26T03:52:42;99405.28;;;24.06
80246;BMP280;69558;39.208;-77.226;2023-06-26T03:55:08;99408.72;;;24.07
80246;BMP280;69558;39.208;-77.226;2023-06-26T03:57:34;99389.53;;;24.00
80246;BMP280;69558;39.208;-77.226;2023-06-26T04:00:00;99401.56;;;24.07
80246;BMP280;69558;39.208;-77.226;2023-06-26T04:02:26;99402.09;;;24.09
80246;BMP280;69558;39.208;-77.226;2023-06-26T04:04:52;99398.34;;;24.05
80246;BMP280;69558;39.208;-77.226;2023-06-26T04:07:19;99392.84;;;24.12
80246;BMP280;69558;39.208;-77.226;2023-06-26T04:09:45;99379.63;;;24.12
80246;BMP280;69558;39.208;-77.226;2023-06-26T04:12:11;99383.56;;;24.09
80246;BMP280;69558;39.208;-77.226;2023-06-26T04:14:37;99375.81;;;24.03
80246;BMP280;69558;39.208;-77.226;2023-06-26T04:17:03;99376.34;;;24.05
80246;BMP280;69558;39.208;-77.226;2023-06-26T04:19:30;99364.41;;;24.02
80246;BMP280;69558;39.208;-77.226;2023-06-26T04:21:56;99360.94;;;23.97
80246;BMP280;69558;39.208;-77.226;2023-06-26T04:24:22;99346.25;;;23.89
80246;BMP280;69558;39.208;-77.226;2023-06-26T04:26:48;99352.91;;;23.91
80246;BMP280;69558;39.208;-77.226;2023-06-26T04:29:14;99353.44;;;23.93
80246;BMP280;69558;39.208;-77.226;2023-06-26T04:31:40;99343.84;;;23.87
80246;BMP280;69558;39.208;-77.226;2023-06-26T04:34:06;99340.47;;;23.92
80246;BMP280;69558;39.208;-77.226;2023-06-26T04:36:32;99341.31;;;23.98
80246;BMP280;69558;39.208;-77.226;2023-06-26T04:38:59;99338.97;;;24.01
80246;BMP280;69558;39.208;-77.226;2023-06-26T04:41:25;99316.34;;;23.93
80246;BMP280;69558;39.208;-77.226;2023-06-26T04:43:51;99319.66;;;24.06
80246;BMP280;69558;39.208;-77.226;2023-06-26T04:46:17;99310.31;;;23.98
80246;BMP280;69558;39.208;-77.226;2023-06-26T04:48:44;99311.44;;;24.02
80246;BMP280;69558;39.208;-77.226;2023-06-26T04:51:11;99309.38;;;24.09
80246;BMP280;69558;39.208;-77.226;2023-06-26T04:53:37;99319.75;;;24.11
80246;BMP280;69558;39.208;-77.226;2023-06-26T04:56:10;99314.44;;;24.11
80246;BMP280;69558;39.208;-77.226;2023-06-26T04:58:42;99307.53;;;24.10
80246;BMP280;69558;39.208;-77.226;2023-06-26T05:01:08;99303.84;;;24.11
80246;BMP280;69558;39.208;-77.226;2023-06-26T05:03:36;99298.78;;;24.09
80246;BMP280;69558;39.208;-77.226;2023-06-26T05:06:02;99287.88;;;24.06
80246;BMP280;69558;39.208;-77.226;2023-06-26T05:08:28;99292.94;;;24.07
80246;BMP280;69558;39.208;-77.226;2023-06-26T05:10:54;99300.13;;;24.12
80246;BMP280;69558;39.208;-77.226;2023-06-26T05:13:26;99301.41;;;24.09
80246;BMP280;69558;39.208;-77.226;2023-06-26T05:15:52;99298.78;;;24.09
80246;BMP280;69558;39.208;-77.226;2023-06-26T05:18:19;99275.66;;;24.05
80246;BMP280;69558;39.208;-77.226;2023-06-26T05:20:46;99282.38;;;24.12
80246;BMP280;69558;39.208;-77.226;2023-06-26T05:23:12;99270.19;;;24.11
80246;BMP280;69558;39.208;-77.226;2023-06-26T05:25:38;99274.44;;;24.12
80246;BMP280;69558;39.208;-77.226;2023-06-26T05:28:05;99262.09;;;23.96
80246;BMP280;69558;39.208;-77.226;2023-06-26T05:30:34;99282.06;;;24.09
80246;BMP280;69558;39.208;-77.226;2023-06-26T05:33:01;99277.56;;;24.09
80246;BMP280;69558;39.208;-77.226;2023-06-26T05:35:31;99271.78;;;24.12
80246;BMP280;69558;39.208;-77.226;2023-06-26T05:37:58;99267.03;;;24.14
80246;BMP280;69558;39.208;-77.226;2023-06-26T05:40:25;99266.75;;;24.11
80246;BMP280;69558;39.208;-77.226;2023-06-26T05:42:51;99257.44;;;24.08
80246;BMP280;69558;39.208;-77.226;2023-06-26T05:45:17;99257.19;;;24.10
80246;BMP280;69558;39.208;-77.226;2023-06-26T05:47:43;99253.72;;;24.09
80246;BMP280;69558;39.208;-77.226;2023-06-26T05:50:10;99251.88;;;24.10
80246;BMP280;69558;39.208;-77.226;2023-06-26T05:52:36;99250.03;;;24.10
80246;BMP280;69558;39.208;-77.226;2023-06-26T05:55:05;99251.09;;;24.09
80246;BMP280;69558;39.208;-77.226;2023-06-26T05:57:38;99247.91;;;24.07
80246;BMP280;69558;39.208;-77.226;2023-06-26T06:00:11;99240.72;;;24.08
80246;BMP280;69558;39.208;-77.226;2023-06-26T06:02:38;99241.53;;;24.08
80246;BMP280;69558;39.208;-77.226;2023-06-26T06:05:04;99236.25;;;24.08
80246;BMP280;69558;39.208;-77.226;2023-06-26T06:07:34;99244.53;;;24.17
80246;BMP280;69558;39.208;-77.226;2023-06-26T06:10:02;99232.84;;;24.13
80246;BMP280;69558;39.208;-77.226;2023-06-26T06:12:29;99232.03;;;24.12
80246;BMP280;69558;39.208;-77.226;2023-06-26T06:14:56;99233.34;;;24.10
80246;BMP280;69558;39.208;-77.226;2023-06-26T06:17:22;99232.53;;;24.09
80246;BMP280;69558;39.208;-77.226;2023-06-26T06:19:49;99241.03;;;24.11
80246;BMP280;69558;39.208;-77.226;2023-06-26T06:22:15;99240.00;;;24.12
80246;BMP280;69558;39.208;-77.226;2023-06-26T06:24:42;99237.63;;;24.11
80246;BMP280;69558;39.208;-77.226;2023-06-26T06:27:09;99231.75;;;24.09
80246;BMP280;69558;39.208;-77.226;2023-06-26T06:29:35;99227.97;;;24.05
80246;BMP280;69558;39.208;-77.226;2023-06-26T06:32:01;99231.50;;;24.10
80246;BMP280;69558;39.208;-77.226;2023-06-26T06:34:27;99237.03;;;24.09
80246;BMP280;69558;39.208;-77.226;2023-06-26T06:36:53;99219.25;;;24.04
80246;BMP280;69558;39.208;-77.226;2023-06-26T06:39:19;99225.13;;;24.06
80246;BMP280;69558;39.208;-77.226;2023-06-26T06:41:45;99228.03;;;24.10
80246;BMP280;69558;39.208;-77.226;2023-06-26T06:44:11;99227.03;;;24.11
80246;BMP280;69558;39.208;-77.226;2023-06-26T06:46:37;99228.84;;;24.10
80246;BMP280;69558;39.208;-77.226;2023-06-26T06:49:04;99230.13;;;24.08
80246;BMP280;69558;39.208;-77.226;2023-06-26T06:51:31;99240.00;;;24.12
80246;BMP280;69558;39.208;-77.226;2023-06-26T06:53:56;99241.03;;;24.11
80246;BMP280;69558;39.208;-77.226;2023-06-26T06:56:22;99220.81;;;24.00
80246;BMP280;69558;39.208;-77.226;2023-06-26T06:58:55;99220.31;;;24.03
80246;BMP280;69558;39.208;-77.226;2023-06-26T07:01:21;99218.25;;;24.10
80246;BMP280;69558;39.208;-77.226;2023-06-26T07:03:47;99216.41;;;24.11
80246;BMP280;69558;39.208;-77.226;2023-06-26T07:06:13;99209.25;;;24.11
80246;BMP280;69558;39.208;-77.226;2023-06-26T07:08:40;99204.44;;;24.08
80246;BMP280;69558;39.208;-77.226;2023-06-26T07:11:05;99203.66;;;24.08
80246;BMP280;69558;39.208;-77.226;2023-06-26T07:13:32;99210.03;;;24.12
80246;BMP280;69558;39.208;-77.226;2023-06-26T07:15:58;99217.19;;;24.11
80246;BMP280;69558;39.208;-77.226;2023-06-26T07:18:24;99218.53;;;24.14
80246;BMP280;69558;39.208;-77.226;2023-06-26T07:20:50;99228.34;;;24.13
80246;BMP280;69558;39.208;-77.226;2023-06-26T07:23:16;99211.91;;;24.11
80246;BMP280;69558;39.208;-77.226;2023-06-26T07:25:42;99220.66;;;24.12
80246;BMP280;69558;39.208;-77.226;2023-06-26T07:28:12;99214.28;;;24.13
80246;BMP280;69558;39.208;-77.226;2023-06-26T07:30:38;99223.28;;;24.12
80246;BMP280;69558;39.208;-77.226;2023-06-26T07:33:04;99226.19;;;24.10
80246;BMP280;69558;39.208;-77.226;2023-06-26T07:35:30;99211.28;;;24.04
80246;BMP280;69558;39.208;-77.226;2023-06-26T07:37:56;99216.13;;;24.07
80246;BMP280;69558;39.208;-77.226;2023-06-26T07:40:22;99208.47;;;24.11
80246;BMP280;69558;39.208;-77.226;2023-06-26T07:42:48;99207.06;;;24.03
80246;BMP280;69558;39.208;-77.226;2023-06-26T07:45:14;99215.31;;;24.07
80246;BMP280;69558;39.208;-77.226;2023-06-26T07:47:40;99217.38;;;24.05
80246;BMP280;69558;39.208;-77.226;2023-06-26T07:50:06;99214.75;;;24.05
80246;BMP280;69558;39.208;-77.226;2023-06-26T07:52:32;99211.13;;;24.11
80246;BMP280;69558;39.208;-77.226;2023-06-26T07:54:58;99213.50;;;24.12
80246;BMP280;69558;39.208;-77.226;2023-06-26T07:57:24;99198.91;;;24.10
80246;BMP280;69558;39.208;-77.226;2023-06-26T07:59:50;99202.28;;;24.05
80246;BMP280;69558;39.208;-77.226;2023-06-26T08:02:17;99210.03;;;24.12
80246;BMP280;69558;39.208;-77.226;2023-06-26T08:04:43;99207.16;;;24.13
80246;BMP280;69558;39.208;-77.226;2023-06-26T08:07:10;99208.94;;;24.08
80246;BMP280;69558;39.208;-77.226;2023-06-26T08:09:36;99204.94;;;24.05
80246;BMP280;69558;39.208;-77.226;2023-06-26T08:12:02;99198.53;;;23.96
80246;BMP280;69558;39.208;-77.226;2023-06-26T08:14:28;99218.19;;;24.05
80246;BMP280;69558;39.208;-77.226;2023-06-26T08:16:54;99230.13;;;24.08
80246;BMP280;69558;39.208;-77.226;2023-06-26T08:19:20;99223.75;;;24.04
80246;BMP280;69558;39.208;-77.226;2023-06-26T08:21:48;99226.19;;;24.10
80246;BMP280;69558;39.208;-77.226;2023-06-26T08:24:14;99223.28;;;24.07
80246;BMP280;69558;39.208;-77.226;2023-06-26T08:26:45;99215.03;;;24.08
80246;BMP280;69558;39.208;-77.226;2023-06-26T08:29:12;99213.94;;;24.04
80246;BMP280;69558;39.208;-77.226;2023-06-26T08:31:39;99208.69;;;24.09
80246;BMP280;69558;39.208;-77.226;2023-06-26T08:34:05;99188.53;;;24.03
80246;BMP280;69558;39.208;-77.226;2023-06-26T08:36:32;99191.50;;;24.12
80246;BMP280;69558;39.208;-77.226;2023-06-26T08:38:58;99189.66;;;24.12
80246;BMP280;69558;39.208;-77.226;2023-06-26T08:41:24;99185.09;;;24.08
80246;BMP280;69558;39.208;-77.226;2023-06-26T08:43:50;99176.59;;;24.06
80246;BMP280;69558;39.208;-77.226;2023-06-26T08:46:18;99176.38;;;24.07
80246;BMP280;69558;39.208;-77.226;2023-06-26T08:48:55;99157.25;;;24.05
80246;BMP280;69558;39.208;-77.226;2023-06-26T08:51:23;99130.94;;;23.93
80246;BMP280;69558;39.208;-77.226;2023-06-26T08:53:58;99149.91;;;24.07
80246;BMP280;69558;39.208;-77.226;2023-06-26T08:56:28;99148.81;;;24.08
80246;BMP280;69558;39.208;-77.226;2023-06-26T08:58:55;99143.78;;;24.07
80246;BMP280;69558;39.208;-77.226;2023-06-26T09:01:21;99135.56;;;24.03
80246;BMP280;69558;39.208;-77.226;2023-06-26T09:03:49;99135.84;;;24.07
80246;BMP280;69558;39.208;-77.226;2023-06-26T09:06:14;99121.81;;;24.06
80246;BMP280;69558;39.208;-77.226;2023-06-26T09:08:40;99111.72;;;24.03
80246;BMP280;69558;39.208;-77.226;2023-06-26T09:11:06;99129.00;;;24.11
80246;BMP280;69558;39.208;-77.226;2023-06-26T09:13:33;99127.59;;;24.03
80246;BMP280;69558;39.208;-77.226;2023-06-26T09:15:59;99136.06;;;24.05
80246;BMP280;69558;39.208;-77.226;2023-06-26T09:18:25;99134.75;;;24.03
80246;BMP280;69558;39.208;-77.226;2023-06-26T09:20:51;99142.47;;;24.09
80246;BMP280;69558;39.208;-77.226;2023-06-26T09:23:18;99130.47;;;23.97
80246;BMP280;69558;39.208;-77.226;2023-06-26T09:25:44;99152.72;;;24.01
80246;BMP280;69558;39.208;-77.226;2023-06-26T09:28:12;99160.72;;;24.06
80246;BMP280;69558;39.208;-77.226;2023-06-26T09:30:38;99167.09;;;24.10
80246;BMP280;69558;39.208;-77.226;2023-06-26T09:33:15;99159.97;;;24.10
80246;BMP280;69558;39.208;-77.226;2023-06-26T09:35:41;99163.13;;;24.07
80246;BMP280;69558;39.208;-77.226;2023-06-26T09:38:07;99160.22;;;24.09
80246;BMP280;69558;39.208;-77.226;2023-06-26T09:40:33;99165.25;;;24.10
80246;BMP280;69558;39.208;-77.226;2023-06-26T09:43:09;99159.69;;;24.07
80246;BMP280;69558;39.208;-77.226;2023-06-26T09:45:35;99163.88;;;24.03
80246;BMP280;69558;39.208;-77.226;2023-06-26T09:48:05;99157.53;;;24.04
80246;BMP280;69558;39.208;-77.226;2023-06-26T09:50:34;99168.44;;;24.07
80246;BMP280;69558;39.208;-77.226;2023-06-26T09:53:12;99165.78;;;24.07
80246;BMP280;69558;39.208;-77.226;2023-06-26T09:55:41;99161.53;;;24.06
80246;BMP280;69558;39.208;-77.226;2023-06-26T09:58:13;99153.81;;;24.05
80246;BMP280;69558;39.208;-77.226;2023-06-26T10:00:43;99150.94;;;24.06
80246;BMP280;69558;39.208;-77.226;2023-06-26T10:03:10;99139.75;;;23.99
80246;BMP280;69558;39.208;-77.226;2023-06-26T10:05:41;99148.28;;;24.06
80246;BMP280;69558;39.208;-77.226;2023-06-26T10:08:08;99147.25;;;24.07
80246;BMP280;69558;39.208;-77.226;2023-06-26T10:10:37;99144.59;;;24.07
80246;BMP280;69558;39.208;-77.226;2023-06-26T10:13:12;99142.16;;;24.06
80246;BMP280;69558;39.208;-77.226;2023-06-26T10:15:40;99137.91;;;24.05
80246;BMP280;69558;39.208;-77.226;2023-06-26T10:18:08;99129.16;;;24.04
80246;BMP280;69558;39.208;-77.226;2023-06-26T10:20:34;99142.16;;;24.06
80246;BMP280;69558;39.208;-77.226;2023-06-26T10:23:01;99131.06;;;24.04
80246;BMP280;69558;39.208;-77.226;2023-06-26T10:25:27;99150.91;;;24.01
80246;BMP280;69558;39.208;-77.226;2023-06-26T10:27:57;99162.84;;;24.04
80246;BMP280;69558;39.208;-77.226;2023-06-26T10:30:27;99157.25;;;24.05
80246;BMP280;69558;39.208;-77.226;2023-06-26T10:32:54;99155.66;;;24.04
80246;BMP280;69558;39.208;-77.226;2023-06-26T10:35:24;99149.59;;;24.04
80246;BMP280;69558;39.208;-77.226;2023-06-26T10:37:51;99138.19;;;24.03
80246;BMP280;69558;39.208;-77.226;2023-06-26T10:40:25;99146.72;;;24.10
80246;BMP280;69558;39.208;-77.226;2023-06-26T10:43:05;99149.09;;;24.07
80246;BMP280;69558;39.208;-77.226;2023-06-26T10:45:34;99144.53;;;24.02
80246;BMP280;69558;39.208;-77.226;2023-06-26T10:48:01;99158.59;;;24.08
80246;BMP280;69558;39.208;-77.226;2023-06-26T10:50:29;99149.53;;;23.99
80246;BMP280;69558;39.208;-77.226;2023-06-26T10:56:05;99158.31;;;24.04
80246;BMP280;69558;39.208;-77.226;2023-06-26T11:01:23;99164.41;;;24.05
80246;BMP280;69558;39.208;-77.226;2023-06-26T11:04:04;99177.94;;;24.03
80246;BMP280;69558;39.208;-77.226;2023-06-26T11:06:32;99180.84;;;24.02
80246;BMP280;69558;39.208;-77.226;2023-06-26T11:14:19;99198.63;;;24.06
80246;BMP280;69558;39.208;-77.226;2023-06-26T11:16:46;99192.50;;;24.06
80246;BMP280;69558;39.208;-77.226;2023-06-26T11:19:13;99195.41;;;24.04
80246;BMP280;69558;39.208;-77.226;2023-06-26T11:21:40;99199.91;;;24.04
80246;BMP280;69558;39.208;-77.226;2023-06-26T11:24:07;99198.63;;;24.06
80246;BMP280;69558;39.208;-77.226;2023-06-26T11:26:44;99196.19;;;24.05
80246;BMP280;69558;39.208;-77.226;2023-06-26T11:29:11;99206.28;;;24.03
80246;BMP280;69558;39.208;-77.226;2023-06-26T11:31:38;99223.75;;;24.04
80246;BMP280;69558;39.208;-77.226;2023-06-26T11:34:10;99235.72;;;24.06
80246;BMP280;69558;39.208;-77.226;2023-06-26T11:36:38;99229.84;;;24.04
80246;BMP280;69558;39.208;-77.226;2023-06-26T11:39:12;99236.22;;;24.03
80246;BMP280;69558;39.208;-77.226;2023-06-26T11:41:39;99240.13;;;24.01
80246;BMP280;69558;39.208;-77.226;2023-06-26T11:44:08;99227.47;;;24.03
80246;BMP280;69558;39.208;-77.226;2023-06-26T11:46:39;99221.88;;;23.99
80246;BMP280;69558;39.208;-77.226;2023-06-26T11:49:06;99226.94;;;24.06
80246;BMP280;69558;39.208;-77.226;2023-06-26T11:51:33;99234.38;;;24.04
80246;BMP280;69558;39.208;-77.226;2023-06-26T11:54:02;99233.81;;;24.02
80246;BMP280;69558;39.208;-77.226;2023-06-26T11:56:28;99230.91;;;24.03
80246;BMP280;69558;39.208;-77.226;2023-06-26T11:59:12;99216.28;;;24.01
80246;BMP280;69558;39.208;-77.226;2023-06-26T12:01:45;99216.06;;;24.02
80246;BMP280;69558;39.208;-77.226;2023-06-26T12:04:13;99217.13;;;24.01
80246;BMP280;69558;39.208;-77.226;2023-06-26T12:06:43;99215.53;;;24.05
80246;BMP280;69558;39.208;-77.226;2023-06-26T12:09:11;99216.63;;;24.09
80246;BMP280;69558;39.208;-77.226;2023-06-26T12:11:38;99213.78;;;24.11
80246;BMP280;69558;39.208;-77.226;2023-06-26T12:14:04;99212.31;;;23.98
80246;BMP280;69558;39.208;-77.226;2023-06-26T12:17:05;99216.81;;;23.98
80246;BMP280;69558;39.208;-77.226;2023-06-26T12:19:31;99213.84;;;23.94
80246;BMP280;69558;39.208;-77.226;2023-06-26T12:21:58;99205.09;;;23.88
80246;BMP280;69558;39.208;-77.226;2023-06-26T12:24:25;99220.97;;;23.88
80246;BMP280;69558;39.208;-77.226;2023-06-26T12:26:53;99217.00;;;23.91
80246;BMP280;69558;39.208;-77.226;2023-06-26T12:29:21;99206.94;;;23.88
80246;BMP280;69558;39.208;-77.226;2023-06-26T12:31:54;99216.94;;;23.86
80246;BMP280;69558;39.208;-77.226;2023-06-26T12:34:26;99211.19;;;23.89
80246;BMP280;69558;39.208;-77.226;2023-06-26T12:36:52;99207.00;;;23.93
80246;BMP280;69558;39.208;-77.226;2023-06-26T12:39:21;99219.75;;;24.01
80246;BMP280;69558;39.208;-77.226;2023-06-26T12:41:55;99213.16;;;24.04
80246;BMP280;69558;39.208;-77.226;2023-06-26T12:44:22;99196.69;;;23.97
80246;BMP280;69558;39.208;-77.226;2023-06-26T12:46:49;99193.22;;;23.96
80246;BMP280;69558;39.208;-77.226;2023-06-26T12:49:16;99190.38;;;24.03
80246;BMP280;69558;39.208;-77.226;2023-06-26T12:51:43;99191.69;;;24.00
80246;BMP280;69558;39.208;-77.226;2023-06-26T12:54:09;99200.69;;;24.04
80246;BMP280;69558;39.208;-77.226;2023-06-26T12:56:35;99196.72;;;24.02
80246;BMP280;69558;39.208;-77.226;2023-06-26T12:59:01;99199.38;;;24.02
80246;BMP280;69558;39.208;-77.226;2023-06-26T13:01:27;99203.94;;;24.06
80246;BMP280;69558;39.208;-77.226;2023-06-26T13:03:54;99202.88;;;24.07
80246;BMP280;69558;39.208;-77.226;2023-06-26T13:06:20;99195.16;;;24.06
80246;BMP280;69558;39.208;-77.226;2023-06-26T13:08:46;99197.78;;;24.06
80246;BMP280;69558;39.208;-77.226;2023-06-26T13:11:12;99202.88;;;24.07
80246;BMP280;69558;39.208;-77.226;2023-06-26T13:13:38;99211.34;;;24.09
80246;BMP280;69558;39.208;-77.226;2023-06-26T13:16:05;99218.25;;;24.10
80246;BMP280;69558;39.208;-77.226;2023-06-26T13:18:31;99204.66;;;24.02
80246;BMP280;69558;39.208;-77.226;2023-06-26T13:20:57;99208.34;;;24.01
80246;BMP280;69558;39.208;-77.226;2023-06-26T13:23:23;99217.38;;;24.05
80246;BMP280;69558;39.208;-77.226;2023-06-26T13:25:49;99215.81;;;24.04
80246;BMP280;69558;39.208;-77.226;2023-06-26T13:28:16;99217.16;;;24.06
80246;BMP280;69558;39.208;-77.226;2023-06-26T13:30:42;99217.97;;;24.07
80246;BMP280;69558;39.208;-77.226;2023-06-26T13:33:08;99211.03;;;24.06
80246;BMP280;69558;39.208;-77.226;2023-06-26T13:35:36;99208.91;;;24.03
80246;BMP280;69558;39.208;-77.226;2023-06-26T13:38:02;99195.09;;;24.01
80246;BMP280;69558;39.208;-77.226;2023-06-26T13:40:29;99199.13;;;24.03
80246;BMP280;69558;39.208;-77.226;2023-06-26T13:42:54;99193.28;;;24.01
80246;BMP280;69558;39.208;-77.226;2023-06-26T13:45:20;99190.63;;;24.01
80246;BMP280;69558;39.208;-77.226;2023-06-26T13:47:46;99195.44;;;24.09
80246;BMP280;69558;39.208;-77.226;2023-06-26T13:50:13;99197.56;;;24.07
80246;BMP280;69558;39.208;-77.226;2023-06-26T13:52:39;99192.50;;;24.06
80246;BMP280;69558;39.208;-77.226;2023-06-26T13:55:06;99187.19;;;24.06
80246;BMP280;69558;39.208;-77.226;2023-06-26T13:57:33;99182.13;;;23.99
80246;BMP280;69558;39.208;-77.226;2023-06-26T13:59:59;99182.94;;;24.05